Ana Sayfa
METAR-TAF:

METAR-TAF

Havaalanları :

Aydın Çıldır Havalimanı

Aydın, Türkiye

Enlem: 37-48-54N, Boylam: 27-53-21E, yükseklik: 31 m

Güncel hava durumu gözlemi

Rapor saat 14:50 UTC de 4 saat ve 24 dakika önce yapıldı.
Rüzgar batıdan 13 kt
Sıcaklık 23°C
Nem 65%
Basınç 1015 hPa
Görüş mesafesi 10 km veya daha fazla
4000 ft yükseklikte parçalı bulutlu

METAR: LTBD 161450Z 27013KT 9999 SCT040 23/16 Q1015

Saat: 22:14 (19:14 UTC)

Tahmin

Rapor saat 13:40 UTC de 5 saat ve 34 dakika önce yapıldı.
Ayın 16'si saat 15 UTC'den ayın 16'si saat 24 UTC'ye kadar geçerli Tahmin
Rüzgar batıdan 12 kt
Görüş mesafesi 10 km veya daha fazla
3000 ft yükseklikte az bulutlu
Dönüşüyor
ayın 16'si saat 16 UTC'den ayın 16'si saat 18 UTC'ye kadar
Rüzgar değişken yönden 2 kt
Görüş mesafesi 10 km veya daha fazla
1500 m altında bulut yok ve kümülonimbus yok

TAF: LTBD 161340Z 1615/1624 27012KT 9999 FEW030 BECMG 1616/1618 VRB02KT CAVOK

4.000'den fazla havaalanı için hava durumu gözlemleri ve tahminleri (METAR ve TAF raporları).

Kullanılabilir istasyonlar harita üzerinde sarı ve kırmızı noktalarla gösterilir.

İstasyonun adını görmek için fareyi noktanın üzerinde gezdirin.

Sonrasında hava gözlem ve tahminlerini görmek için tıklayın.

Haritayı değiştirmek için: yaklaştırmak için siyah artı işaretli yeşil düğmeye ve uzaklaştırmak için de eksi işaretli düğmeye hızla tıklayın; bitişik haritalar için yeşil okları kullanın.


METAR-TAF: